createdAt,value
2023-01-11T00:00:27.419Z,18.00
2023-01-11T00:03:02.526Z,18.00
2023-01-11T00:05:29.518Z,18.00
2023-01-11T00:07:56.379Z,17.90
2023-01-11T00:10:23.292Z,17.90
2023-01-11T00:12:50.117Z,17.90
2023-01-11T00:15:17.231Z,17.90
2023-01-11T00:17:43.913Z,17.90
2023-01-11T00:20:11.143Z,17.80
2023-01-11T00:22:37.954Z,17.80
2023-01-11T00:25:05.539Z,17.80
2023-01-11T00:27:32.404Z,17.70
2023-01-11T00:29:59.090Z,17.70
2023-01-11T00:32:27.216Z,17.70
2023-01-11T00:34:54.216Z,17.70
2023-01-11T00:37:21.520Z,17.70
2023-01-11T00:39:48.234Z,17.60
2023-01-11T00:42:33.633Z,17.60
2023-01-11T00:45:32.984Z,17.60
2023-01-11T00:48:01.002Z,17.60
2023-01-11T00:50:31.313Z,17.60
2023-01-11T00:52:59.031Z,17.50
2023-01-11T00:55:26.814Z,17.50
2023-01-11T00:57:53.889Z,17.50
2023-01-11T01:00:21.611Z,17.50
2023-01-11T01:02:48.692Z,17.40
2023-01-11T01:05:15.768Z,17.40
2023-01-11T01:07:42.789Z,17.40
2023-01-11T01:10:11.482Z,17.40
2023-01-11T01:12:56.854Z,17.40
2023-01-11T01:15:23.769Z,17.30
2023-01-11T01:17:54.083Z,17.30
2023-01-11T01:20:22.359Z,17.30
2023-01-11T01:22:49.611Z,17.30
2023-01-11T01:25:16.439Z,17.30
2023-01-11T01:27:43.340Z,17.30
2023-01-11T01:30:11.093Z,17.30
2023-01-11T01:32:37.913Z,17.20
2023-01-11T01:35:05.100Z,17.20
2023-01-11T01:37:31.807Z,17.20
2023-01-11T01:39:58.474Z,17.20
2023-01-11T01:42:25.529Z,17.20
2023-01-11T01:45:07.123Z,17.20
2023-01-11T01:47:45.433Z,17.10
2023-01-11T01:50:22.374Z,17.10
2023-01-11T01:52:52.915Z,17.10
2023-01-11T01:55:26.444Z,17.10
2023-01-11T01:57:54.972Z,17.10
2023-01-11T02:00:21.907Z,17.10
2023-01-11T02:02:50.151Z,17.10
2023-01-11T02:05:18.135Z,17.00
2023-01-11T02:07:46.167Z,17.00
2023-01-11T02:10:17.925Z,17.00
2023-01-11T02:13:08.818Z,17.00
2023-01-11T02:15:36.093Z,17.00
2023-01-11T02:18:02.799Z,16.90
2023-01-11T02:21:01.817Z,16.90
2023-01-11T02:24:14.353Z,16.90
2023-01-11T02:27:16.171Z,16.90
2023-01-11T02:30:06.400Z,16.90
2023-01-11T02:33:07.866Z,16.80
2023-01-11T02:35:56.832Z,16.80
2023-01-11T02:38:35.156Z,16.80
2023-01-11T02:41:12.322Z,16.80
2023-01-11T02:44:21.039Z,16.80
2023-01-11T02:47:06.517Z,16.80
2023-01-11T02:49:43.112Z,16.70
2023-01-11T02:52:22.083Z,16.70
2023-01-11T02:54:54.501Z,16.70
2023-01-11T02:57:24.668Z,16.70
2023-01-11T02:59:54.961Z,16.70
2023-01-11T03:02:21.615Z,16.70
2023-01-11T03:04:48.355Z,16.70
2023-01-11T03:07:23.748Z,16.60
2023-01-11T03:10:06.917Z,16.60
2023-01-11T03:13:06.396Z,16.60
2023-01-11T03:16:01.403Z,16.60
2023-01-11T03:18:52.281Z,16.60
2023-01-11T03:21:27.538Z,16.60
2023-01-11T03:24:03.900Z,16.60
2023-01-11T03:26:48.455Z,16.60
2023-01-11T03:29:39.719Z,16.60
2023-01-11T03:32:33.311Z,16.50
2023-01-11T03:35:17.937Z,16.50
2023-01-11T03:37:47.687Z,16.50
2023-01-11T03:40:23.151Z,16.50
2023-01-11T03:43:13.198Z,16.50
2023-01-11T03:45:45.649Z,16.50
2023-01-11T03:48:19.762Z,16.50
2023-01-11T03:50:49.715Z,16.50
2023-01-11T03:53:19.456Z,16.40
2023-01-11T03:55:49.652Z,16.40
2023-01-11T03:58:16.433Z,16.40
2023-01-11T04:00:43.663Z,16.40
2023-01-11T04:03:12.528Z,16.40
2023-01-11T04:05:43.669Z,16.40
2023-01-11T04:08:11.450Z,16.40
2023-01-11T04:10:38.354Z,16.40
2023-01-11T04:13:05.017Z,16.40
2023-01-11T04:15:34.546Z,16.40
2023-01-11T04:18:05.061Z,16.40
2023-01-11T04:20:36.910Z,16.40
2023-01-11T04:23:05.411Z,16.30
2023-01-11T04:25:32.235Z,16.30
2023-01-11T04:27:59.521Z,16.30
2023-01-11T04:30:26.543Z,16.30
2023-01-11T04:32:53.365Z,16.30
2023-01-11T04:35:20.087Z,16.30
2023-01-11T04:37:46.799Z,16.30
2023-01-11T04:40:13.640Z,16.30
2023-01-11T04:42:40.418Z,16.30
2023-01-11T04:45:07.982Z,16.30
2023-01-11T04:47:34.925Z,16.30
2023-01-11T04:50:01.690Z,16.30
2023-01-11T04:52:28.445Z,16.30
2023-01-11T04:54:55.188Z,16.20
2023-01-11T04:57:21.963Z,16.20
2023-01-11T04:59:48.937Z,16.20
2023-01-11T05:02:16.268Z,16.20
2023-01-11T05:04:43.433Z,16.20
2023-01-11T05:07:11.347Z,16.20
2023-01-11T05:09:38.127Z,16.20
2023-01-11T05:12:04.910Z,16.20
2023-01-11T05:14:31.594Z,16.20
2023-01-11T05:16:58.932Z,16.20
2023-01-11T05:19:25.761Z,16.20
2023-01-11T05:21:52.489Z,16.20
2023-01-11T05:24:19.260Z,16.10
2023-01-11T05:26:48.331Z,16.10
2023-01-11T05:29:20.630Z,16.10
2023-01-11T05:31:48.119Z,16.10
2023-01-11T05:34:16.640Z,16.10
2023-01-11T05:36:43.552Z,16.10
2023-01-11T05:39:12.595Z,16.10
2023-01-11T05:41:39.819Z,16.10
2023-01-11T05:44:29.314Z,16.10
2023-01-11T05:46:55.995Z,16.10
2023-01-11T05:49:22.911Z,16.10
2023-01-11T05:51:49.682Z,16.00
2023-01-11T05:54:16.442Z,16.00
2023-01-11T05:56:43.441Z,16.00
2023-01-11T05:59:10.445Z,16.00
2023-01-11T06:01:37.548Z,16.00
2023-01-11T06:04:04.383Z,16.00
2023-01-11T06:06:32.032Z,16.00
2023-01-11T06:08:58.763Z,16.00
2023-01-11T06:11:25.413Z,16.00
2023-01-11T06:13:52.315Z,16.00
2023-01-11T06:16:20.486Z,16.00
2023-01-11T06:18:50.432Z,16.00
2023-01-11T06:21:18.289Z,16.00
2023-01-11T06:23:47.588Z,16.00
2023-01-11T06:26:16.755Z,15.90
2023-01-11T06:28:43.872Z,15.90
2023-01-11T06:31:11.241Z,15.90
2023-01-11T06:33:38.665Z,15.90
2023-01-11T06:36:10.125Z,15.90
2023-01-11T06:38:37.383Z,15.90
2023-01-11T06:41:05.799Z,15.90
2023-01-11T06:43:32.940Z,15.90
2023-01-11T06:46:00.305Z,15.90
2023-01-11T06:48:28.059Z,15.90
2023-01-11T06:50:57.147Z,15.90
2023-01-11T06:53:28.340Z,15.90
2023-01-11T06:55:57.487Z,15.90
2023-01-11T06:58:25.792Z,15.80
2023-01-11T07:00:53.919Z,15.80
2023-01-11T07:03:21.143Z,15.80
2023-01-11T07:05:47.950Z,15.80
2023-01-11T07:08:14.912Z,15.80
2023-01-11T07:10:43.621Z,15.80
2023-01-11T07:13:12.139Z,15.80
2023-01-11T07:15:38.979Z,15.80
2023-01-11T07:18:05.817Z,15.80
2023-01-11T07:20:32.569Z,15.80
2023-01-11T07:23:00.354Z,15.80
2023-01-11T07:25:28.644Z,15.80
2023-01-11T07:27:59.787Z,15.80
2023-01-11T07:30:28.807Z,15.80
2023-01-11T07:32:57.855Z,15.80
2023-01-11T07:35:24.633Z,15.80
2023-01-11T07:37:51.392Z,15.80
2023-01-11T07:40:18.593Z,15.70
2023-01-11T07:43:08.428Z,15.80
2023-01-11T07:45:45.495Z,15.70
2023-01-11T07:48:13.120Z,15.70
2023-01-11T07:50:42.680Z,15.70
2023-01-11T07:53:11.031Z,15.70
2023-01-11T07:55:39.489Z,15.70
2023-01-11T07:58:07.163Z,15.70
2023-01-11T08:00:34.017Z,15.70
2023-01-11T08:03:02.037Z,15.70
2023-01-11T08:05:29.360Z,15.70
2023-01-11T08:07:56.180Z,15.70
2023-01-11T08:10:22.940Z,15.70
2023-01-11T08:13:08.634Z,15.70
2023-01-11T08:15:42.438Z,15.70
2023-01-11T08:18:11.340Z,15.70
2023-01-11T08:20:38.907Z,15.70
2023-01-11T08:23:07.401Z,15.70
2023-01-11T08:25:37.817Z,15.70
2023-01-11T08:28:06.426Z,15.70
2023-01-11T08:30:33.572Z,15.60
2023-01-11T08:33:04.788Z,15.60
2023-01-11T08:35:36.843Z,15.60
2023-01-11T08:38:03.538Z,15.60
2023-01-11T08:40:30.250Z,15.60
2023-01-11T08:42:57.391Z,15.60
2023-01-11T08:45:24.974Z,15.60
2023-01-11T08:47:52.126Z,15.60
2023-01-11T08:50:19.697Z,15.60
2023-01-11T08:52:47.675Z,15.60
2023-01-11T08:55:14.625Z,15.60
2023-01-11T08:57:41.428Z,15.60
2023-01-11T09:00:09.531Z,15.60
2023-01-11T09:02:36.430Z,15.60
2023-01-11T09:05:03.293Z,15.60
2023-01-11T09:07:29.980Z,15.60
2023-01-11T09:09:56.696Z,15.60
2023-01-11T09:12:29.299Z,15.60
2023-01-11T09:15:07.342Z,15.60
2023-01-11T09:17:35.533Z,15.60
2023-01-11T09:20:12.776Z,15.60
2023-01-11T09:22:43.267Z,15.60
2023-01-11T09:25:13.040Z,15.60
2023-01-11T09:27:49.154Z,15.60
2023-01-11T09:30:21.513Z,15.60
2023-01-11T09:32:49.647Z,15.60
2023-01-11T09:35:16.865Z,15.60
2023-01-11T09:37:55.970Z,15.60
2023-01-11T09:40:42.024Z,15.60
2023-01-11T09:43:14.817Z,15.60
2023-01-11T09:45:46.906Z,15.70
2023-01-11T09:48:32.999Z,15.70
2023-01-11T09:51:01.462Z,15.60
2023-01-11T09:53:34.839Z,15.70
2023-01-11T09:56:05.067Z,15.70
2023-01-11T09:58:53.523Z,15.70
2023-01-11T10:01:50.003Z,15.70
2023-01-11T10:04:40.221Z,15.70
2023-01-11T10:07:10.184Z,15.70
2023-01-11T10:18:28.981Z,15.80
2023-01-11T10:19:40.559Z,15.80
2023-01-11T10:22:23.328Z,15.80
2023-01-11T10:25:11.531Z,15.80
2023-01-11T10:27:46.080Z,15.80
2023-01-11T10:30:36.964Z,15.90
2023-01-11T10:33:24.885Z,15.90
2023-01-11T10:36:14.925Z,15.90
2023-01-11T10:38:57.169Z,15.90
2023-01-11T10:41:38.539Z,15.90
2023-01-11T10:44:19.213Z,15.90
2023-01-11T10:46:52.634Z,15.90
2023-01-11T10:49:33.656Z,15.90
2023-01-11T10:52:35.475Z,15.90
2023-01-11T10:55:12.861Z,15.90
2023-01-11T10:58:11.419Z,16.00
2023-01-11T11:01:08.381Z,16.00
2023-01-11T11:03:49.359Z,16.00
2023-01-11T11:06:19.063Z,16.00
2023-01-11T11:08:57.647Z,16.00
2023-01-11T11:11:53.039Z,16.00
2023-01-11T11:15:00.783Z,16.00
2023-01-11T11:17:36.162Z,16.00
2023-01-11T11:20:19.479Z,16.00
2023-01-11T11:22:50.066Z,16.00
2023-01-11T11:25:27.411Z,16.00
2023-01-11T11:28:15.449Z,16.00
2023-01-11T11:30:45.108Z,16.00
2023-01-11T11:33:20.385Z,16.00
2023-01-11T11:36:00.101Z,16.00
2023-01-11T11:38:30.006Z,16.00
2023-01-11T11:40:58.439Z,16.00
2023-01-11T11:43:26.883Z,16.00
2023-01-11T11:46:19.815Z,16.00
2023-01-11T11:49:33.491Z,16.00
2023-01-11T11:52:17.833Z,16.00
2023-01-11T11:57:48.118Z,16.00
2023-01-11T12:00:44.006Z,16.00
2023-01-11T12:03:35.452Z,16.00
2023-01-11T12:06:07.462Z,16.00
2023-01-11T12:08:35.918Z,16.00
2023-01-11T12:11:06.882Z,16.00
2023-01-11T12:13:37.676Z,15.90
2023-01-11T12:16:08.097Z,16.00
2023-01-11T12:18:37.761Z,15.90
2023-01-11T12:21:30.177Z,16.00
2023-01-11T12:24:19.171Z,15.90
2023-01-11T12:27:00.722Z,15.90
2023-01-11T12:29:50.234Z,15.90
2023-01-11T12:32:35.146Z,15.90
2023-01-11T12:35:27.214Z,15.90
2023-01-11T12:38:38.066Z,15.90
2023-01-11T12:41:17.454Z,15.90
2023-01-11T12:43:52.895Z,15.90
2023-01-11T12:46:32.502Z,15.90
2023-01-11T12:48:59.149Z,15.90
2023-01-11T12:52:01.597Z,15.90
2023-01-11T12:54:52.211Z,15.90
2023-01-11T12:57:51.018Z,15.90
2023-01-11T13:00:36.775Z,15.90
2023-01-11T13:03:14.127Z,15.90
2023-01-11T13:06:14.157Z,15.90
2023-01-11T13:08:43.876Z,15.90
2023-01-11T13:11:49.943Z,15.90
2023-01-11T13:14:39.621Z,15.90
2023-01-11T13:17:21.870Z,15.90
2023-01-11T13:20:16.414Z,15.90
2023-01-11T13:22:59.551Z,15.90
2023-01-11T13:25:29.621Z,15.90
2023-01-11T13:27:59.100Z,15.80
2023-01-11T13:30:27.041Z,15.90
2023-01-11T13:33:02.270Z,15.80
2023-01-11T13:35:40.857Z,15.80
2023-01-11T13:38:34.873Z,15.80
2023-01-11T13:41:21.232Z,15.80
2023-01-11T13:44:13.466Z,15.80
2023-01-11T13:47:03.154Z,15.80
2023-01-11T13:49:58.942Z,15.80
2023-01-11T13:52:41.676Z,15.80
2023-01-11T13:55:14.412Z,15.80
2023-01-11T13:57:56.395Z,15.80
2023-01-11T14:00:31.299Z,15.80
2023-01-11T14:03:14.943Z,15.80
2023-01-11T14:06:13.156Z,15.80
2023-01-11T14:09:06.684Z,15.80
2023-01-11T14:11:51.965Z,15.80
2023-01-11T14:14:28.578Z,15.80
2023-01-11T14:17:01.244Z,15.80
2023-01-11T14:20:11.993Z,15.80
2023-01-11T14:22:49.995Z,15.80
2023-01-11T14:25:30.675Z,15.80
2023-01-11T14:28:03.203Z,15.80
2023-01-11T14:31:01.096Z,15.80
2023-01-11T14:34:05.963Z,15.80
2023-01-11T14:36:59.909Z,15.80
2023-01-11T14:39:40.451Z,15.80
2023-01-11T14:42:38.875Z,15.80
2023-01-11T14:45:18.130Z,15.80
2023-01-11T14:47:51.797Z,15.80
2023-01-11T14:50:41.976Z,15.80
2023-01-11T14:53:15.924Z,15.80
2023-01-11T14:55:47.943Z,15.80
2023-01-11T14:58:31.996Z,15.80
2023-01-11T15:00:58.662Z,15.70
2023-01-11T15:03:42.387Z,15.70
2023-01-11T15:06:16.816Z,15.70
2023-01-11T15:08:45.027Z,15.70
2023-01-11T15:11:34.624Z,15.70
2023-01-11T15:14:07.026Z,15.70
2023-01-11T15:16:54.871Z,15.70
2023-01-11T15:19:34.368Z,15.70
2023-01-11T15:22:03.777Z,15.70
2023-01-11T15:24:42.633Z,15.70
2023-01-11T15:27:25.458Z,15.70
2023-01-11T15:29:57.267Z,15.70
2023-01-11T15:32:28.295Z,15.60
2023-01-11T15:35:17.493Z,15.60
2023-01-11T15:37:51.192Z,15.60
2023-01-11T15:40:22.378Z,15.60
2023-01-11T15:43:04.263Z,15.60
2023-01-11T15:46:04.639Z,15.60
2023-01-11T15:48:45.758Z,15.60
2023-01-11T15:51:35.152Z,15.60
2023-01-11T15:54:35.799Z,15.60
2023-01-11T15:57:25.579Z,15.60
2023-01-11T16:00:23.774Z,15.60
2023-01-11T16:03:27.718Z,15.60
2023-01-11T16:06:28.560Z,15.50
2023-01-11T16:09:14.078Z,15.50
2023-01-11T16:12:18.794Z,15.50
2023-01-11T16:15:26.944Z,15.50
2023-01-11T16:17:53.904Z,15.50
2023-01-11T16:20:20.541Z,15.50
2023-01-11T16:22:57.136Z,15.50
2023-01-11T16:25:28.856Z,15.50
2023-01-11T16:27:58.334Z,15.50
2023-01-11T16:30:25.995Z,15.50
2023-01-11T16:32:53.391Z,15.50
2023-01-11T16:35:25.758Z,15.50
2023-01-11T16:38:01.360Z,15.50
2023-01-11T16:40:36.845Z,15.50
2023-01-11T16:43:14.806Z,15.50
2023-01-11T16:45:50.020Z,15.50
2023-01-11T16:48:29.508Z,15.50
2023-01-11T16:51:05.912Z,15.50
2023-01-11T16:53:41.943Z,15.50
2023-01-11T16:56:22.116Z,15.50
2023-01-11T16:59:19.906Z,15.50
2023-01-11T17:01:51.301Z,15.50
2023-01-11T17:04:51.456Z,15.50
2023-01-11T17:07:33.260Z,15.40
2023-01-11T17:10:29.910Z,15.50
2023-01-11T17:12:59.424Z,15.50
2023-01-11T17:18:23.722Z,15.60
2023-01-11T17:20:57.414Z,15.60
2023-01-11T17:23:27.758Z,15.70
2023-01-11T17:29:33.642Z,15.90
2023-01-11T17:32:42.497Z,16.10
2023-01-11T17:35:18.193Z,16.50
2023-01-11T17:37:47.436Z,16.80
2023-01-11T17:40:36.243Z,17.20
2023-01-11T17:43:35.719Z,17.60
2023-01-11T17:46:04.671Z,17.90
2023-01-11T17:48:32.485Z,18.30
2023-01-11T17:51:02.179Z,18.60
2023-01-11T17:53:32.373Z,18.90
2023-01-11T17:56:01.168Z,19.10
2023-01-11T17:58:29.795Z,19.30
2023-01-11T18:01:08.386Z,19.50
2023-01-11T18:03:42.507Z,19.70
2023-01-11T18:06:14.115Z,19.80
2023-01-11T18:08:46.853Z,20.00
2023-01-11T18:11:21.843Z,20.10
2023-01-11T18:13:52.400Z,20.20
2023-01-11T18:16:21.127Z,20.30
2023-01-11T18:18:51.981Z,20.30
2023-01-11T18:21:41.844Z,20.40
2023-01-11T18:24:11.766Z,20.50
2023-01-11T18:26:41.008Z,20.50
2023-01-11T18:29:36.583Z,20.50
2023-01-11T18:32:04.916Z,20.60
2023-01-11T18:34:32.415Z,20.60
2023-01-11T18:36:59.988Z,20.60
2023-01-11T18:39:26.796Z,20.60
2023-01-11T18:42:09.648Z,20.60
2023-01-11T18:44:39.233Z,20.60
2023-01-11T18:47:19.366Z,20.60
2023-01-11T18:49:46.247Z,20.60
2023-01-11T18:52:13.573Z,20.60
2023-01-11T18:54:41.235Z,20.60
2023-01-11T18:57:08.411Z,20.60
2023-01-11T18:59:35.548Z,20.60
2023-01-11T19:02:17.253Z,20.50
2023-01-11T19:04:45.280Z,20.50
2023-01-11T19:07:12.314Z,20.50
2023-01-11T19:09:39.292Z,20.50
2023-01-11T19:12:06.525Z,20.50
2023-01-11T19:14:33.632Z,20.50
2023-01-11T19:17:00.457Z,20.50
2023-01-11T19:19:27.181Z,20.50
2023-01-11T19:21:53.925Z,20.50
2023-01-11T19:24:20.586Z,20.50
2023-01-11T19:26:47.314Z,20.50
2023-01-11T19:29:18.575Z,20.50
2023-01-11T19:31:46.169Z,20.50
2023-01-11T19:34:13.815Z,20.50
2023-01-11T19:36:40.921Z,20.50
2023-01-11T19:39:08.444Z,20.50
2023-01-11T19:42:05.710Z,20.50
2023-01-11T19:44:48.793Z,20.50
2023-01-11T19:47:25.439Z,20.50
2023-01-11T19:50:24.501Z,20.50
2023-01-11T19:53:05.025Z,20.50
2023-01-11T19:58:34.973Z,20.50
2023-01-11T20:01:17.780Z,20.50
2023-01-11T20:04:39.091Z,20.40
2023-01-11T20:07:14.228Z,20.40
2023-01-11T20:10:16.917Z,20.40
2023-01-11T20:12:48.605Z,20.30
2023-01-11T20:15:15.563Z,20.30
2023-01-11T20:17:57.816Z,20.30
2023-01-11T20:20:24.628Z,20.30
2023-01-11T20:22:51.517Z,20.30
2023-01-11T20:25:18.266Z,20.20
2023-01-11T20:27:45.055Z,20.20
2023-01-11T20:30:12.092Z,20.20
2023-01-11T20:32:42.173Z,20.10
2023-01-11T20:35:10.830Z,20.10
2023-01-11T20:37:37.786Z,20.10
2023-01-11T20:40:05.197Z,20.00
2023-01-11T20:42:31.944Z,20.00
2023-01-11T20:44:58.668Z,20.00
2023-01-11T20:47:25.392Z,19.90
2023-01-11T20:49:52.178Z,19.90
2023-01-11T20:52:18.996Z,19.90
2023-01-11T20:54:45.768Z,19.80
2023-01-11T20:57:12.909Z,19.80
2023-01-11T20:59:39.715Z,19.70
2023-01-11T21:02:07.586Z,19.70
2023-01-11T21:04:35.759Z,19.70
2023-01-11T21:07:02.696Z,19.60
2023-01-11T21:09:29.377Z,19.60
2023-01-11T21:11:56.069Z,19.60
2023-01-11T21:14:22.943Z,19.50
2023-01-11T21:16:49.790Z,19.40
2023-01-11T21:19:16.802Z,19.40
2023-01-11T21:21:43.568Z,19.40
2023-01-11T21:24:14.238Z,19.30
2023-01-11T21:26:42.324Z,19.30
2023-01-11T21:29:10.609Z,19.30
2023-01-11T21:31:38.479Z,19.20
2023-01-11T21:34:05.558Z,19.20
2023-01-11T21:36:32.553Z,19.20
2023-01-11T21:39:00.074Z,19.10
2023-01-11T21:41:47.823Z,19.10
2023-01-11T21:44:15.525Z,19.00
2023-01-11T21:46:43.259Z,19.10
2023-01-11T21:49:11.001Z,19.10
2023-01-11T21:51:38.400Z,19.20
2023-01-11T21:54:13.642Z,19.20
2023-01-11T21:56:41.794Z,19.30
2023-01-11T21:59:08.623Z,19.40
2023-01-11T22:01:35.497Z,19.50
2023-01-11T22:04:07.212Z,19.60
2023-01-11T22:06:38.479Z,19.70
2023-01-11T22:09:06.289Z,19.80
2023-01-11T22:11:33.340Z,19.80
2023-01-11T22:14:02.503Z,19.90
2023-01-11T22:16:30.981Z,19.90
2023-01-11T22:18:59.066Z,19.90
2023-01-11T22:21:26.217Z,20.00
2023-01-11T22:23:54.934Z,20.00
2023-01-11T22:26:21.954Z,20.00
2023-01-11T22:29:11.358Z,20.00
2023-01-11T22:31:52.515Z,20.00
2023-01-11T22:34:19.307Z,20.00
2023-01-11T22:36:46.359Z,20.00
2023-01-11T22:39:14.569Z,20.00
2023-01-11T22:41:41.536Z,20.00
2023-01-11T22:44:09.344Z,19.90
2023-01-11T22:46:36.244Z,19.90
2023-01-11T22:49:04.775Z,19.90
2023-01-11T22:51:31.786Z,19.80
2023-01-11T22:53:58.505Z,19.80
2023-01-11T22:56:26.510Z,19.80
2023-01-11T22:58:54.312Z,19.80
2023-01-11T23:01:29.714Z,19.70
2023-01-11T23:03:57.368Z,19.70
2023-01-11T23:06:30.411Z,19.60
2023-01-11T23:08:57.419Z,19.60
2023-01-11T23:11:49.102Z,19.50
2023-01-11T23:14:18.750Z,19.50
2023-01-11T23:16:46.666Z,19.50
2023-01-11T23:19:16.135Z,19.40
2023-01-11T23:21:44.624Z,19.40
2023-01-11T23:24:13.063Z,19.30
2023-01-11T23:26:40.392Z,19.30
2023-01-11T23:29:07.645Z,19.30
2023-01-11T23:31:35.142Z,19.20
2023-01-11T23:34:03.938Z,19.20
2023-01-11T23:36:33.871Z,19.20
2023-01-11T23:39:01.462Z,19.10
2023-01-11T23:41:47.072Z,19.10
2023-01-11T23:44:15.635Z,19.10
2023-01-11T23:47:02.062Z,19.00
2023-01-11T23:49:29.974Z,18.90
2023-01-11T23:51:57.033Z,18.90
2023-01-11T23:54:27.321Z,18.90
2023-01-11T23:56:54.497Z,18.90
2023-01-11T23:59:21.300Z,18.80
